createdAt,value
2017-11-12T00:00:27.306Z,0
2017-11-12T00:01:27.630Z,0
2017-11-12T00:02:28.010Z,0
2017-11-12T00:03:27.339Z,0
2017-11-12T00:04:27.365Z,0
2017-11-12T00:05:27.715Z,0
2017-11-12T00:06:28.061Z,0
2017-11-12T00:07:27.741Z,0
2017-11-12T00:08:28.091Z,0
2017-11-12T00:09:27.775Z,0
2017-11-12T00:10:28.109Z,0
2017-11-12T00:11:28.132Z,0
2017-11-12T00:12:28.138Z,0
2017-11-12T00:13:27.516Z,0
2017-11-12T00:14:27.535Z,0
2017-11-12T00:15:27.540Z,0
2017-11-12T00:16:27.232Z,0
2017-11-12T00:17:28.230Z,0
2017-11-12T00:18:28.244Z,0
2017-11-12T00:19:27.933Z,0
2017-11-12T00:20:27.945Z,0
2017-11-12T00:21:28.291Z,0
2017-11-12T00:22:28.306Z,0
2017-11-12T00:23:28.323Z,0
2017-11-12T00:24:28.362Z,0
2017-11-12T00:25:28.360Z,0
2017-11-12T00:26:28.397Z,0
2017-11-12T00:27:28.126Z,0
2017-11-12T00:28:28.414Z,0
2017-11-12T00:29:28.091Z,0
2017-11-12T00:30:28.114Z,0
2017-11-12T00:31:28.129Z,0
2017-11-12T00:32:28.151Z,0
2017-11-12T00:33:28.163Z,0
2017-11-12T00:34:28.500Z,0
2017-11-12T00:35:28.210Z,0
2017-11-12T00:36:28.217Z,0
2017-11-12T00:37:28.227Z,0
2017-11-12T00:38:28.241Z,0
2017-11-12T00:39:28.263Z,0
2017-11-12T00:40:28.281Z,0
2017-11-12T00:41:28.289Z,0
2017-11-12T00:42:28.695Z,0
2017-11-12T00:43:28.018Z,0
2017-11-12T00:44:28.677Z,0
2017-11-12T00:45:28.703Z,0
2017-11-12T00:46:28.390Z,0
2017-11-12T00:47:28.074Z,0
2017-11-12T00:48:28.412Z,0
2017-11-12T00:49:28.103Z,0
2017-11-12T00:50:28.139Z,0
2017-11-12T00:51:28.826Z,0
2017-11-12T00:52:28.795Z,0
2017-11-12T00:53:28.831Z,0
2017-11-12T00:54:28.194Z,0
2017-11-12T00:55:28.851Z,0
2017-11-12T00:56:28.220Z,0
2017-11-12T00:57:28.610Z,0
2017-11-12T00:58:28.900Z,0
2017-11-12T00:59:28.917Z,0
2017-11-12T01:00:28.955Z,0
2017-11-12T01:01:28.994Z,0
2017-11-12T01:02:28.985Z,0
2017-11-12T01:03:28.981Z,0
2017-11-12T01:04:28.680Z,0
2017-11-12T01:05:28.692Z,0
2017-11-12T01:06:28.715Z,0
2017-11-12T01:07:28.737Z,0
2017-11-12T01:08:28.418Z,0
2017-11-12T01:09:29.137Z,0
2017-11-12T01:10:28.774Z,0
2017-11-12T01:11:28.466Z,0
2017-11-12T01:12:28.532Z,0
2017-11-12T01:13:29.173Z,0
2017-11-12T01:14:28.522Z,0
2017-11-12T01:15:28.863Z,0
2017-11-12T01:16:28.230Z,0
2017-11-12T01:17:29.219Z,0
2017-11-12T01:18:28.584Z,0
2017-11-12T01:19:28.605Z,0
2017-11-12T01:20:28.955Z,0
2017-11-12T01:21:28.635Z,0
2017-11-12T01:22:29.295Z,0
2017-11-12T01:23:28.991Z,0
2017-11-12T01:24:28.687Z,0
2017-11-12T01:25:29.029Z,0
2017-11-12T01:26:29.055Z,0
2017-11-12T01:27:29.059Z,0
2017-11-12T01:28:28.751Z,0
2017-11-12T01:29:29.088Z,0
2017-11-12T01:30:29.165Z,0
2017-11-12T01:31:29.473Z,0
2017-11-12T01:32:29.143Z,0
2017-11-12T01:33:29.487Z,0
2017-11-12T01:34:29.175Z,0
2017-11-12T01:35:29.553Z,0
2017-11-12T01:36:29.203Z,0
2017-11-12T01:37:29.217Z,0
2017-11-12T01:38:28.912Z,0
2017-11-12T01:39:29.255Z,0
2017-11-12T01:40:29.293Z,0
2017-11-12T01:41:29.292Z,0
2017-11-12T01:42:29.310Z,0
2017-11-12T01:43:29.647Z,0
2017-11-12T01:44:29.660Z,0
2017-11-12T01:45:29.726Z,0
2017-11-12T01:46:29.053Z,0
2017-11-12T01:47:29.407Z,0
2017-11-12T01:48:29.085Z,0
2017-11-12T01:49:29.420Z,0
2017-11-12T01:50:29.451Z,0
2017-11-12T01:51:29.792Z,0
2017-11-12T01:52:29.485Z,0
2017-11-12T01:53:28.863Z,0
2017-11-12T01:54:29.501Z,0
2017-11-12T01:55:29.530Z,0
2017-11-12T01:56:29.533Z,0
2017-11-12T01:57:29.235Z,0
2017-11-12T01:58:29.565Z,0
2017-11-12T01:59:29.908Z,0
2017-11-12T02:00:29.657Z,0
2017-11-12T02:01:29.938Z,0
2017-11-12T02:02:29.309Z,0
2017-11-12T02:03:29.334Z,0
2017-11-12T02:04:29.994Z,0
2017-11-12T02:05:29.686Z,0
2017-11-12T02:06:29.697Z,0
2017-11-12T02:07:30.065Z,0
2017-11-12T02:08:29.742Z,0
2017-11-12T02:09:30.091Z,0
2017-11-12T02:10:30.095Z,0
2017-11-12T02:11:29.488Z,0
2017-11-12T02:12:29.801Z,0
2017-11-12T02:13:29.810Z,0
2017-11-12T02:14:29.843Z,0
2017-11-12T02:15:29.526Z,0
2017-11-12T02:16:30.239Z,0
2017-11-12T02:17:29.886Z,0
2017-11-12T02:18:29.935Z,0
2017-11-12T02:19:30.246Z,0
2017-11-12T02:20:30.255Z,0
2017-11-12T02:21:29.625Z,0
2017-11-12T02:22:30.286Z,0
2017-11-12T02:23:30.300Z,0
2017-11-12T02:24:29.984Z,0
2017-11-12T02:25:29.682Z,0
2017-11-12T02:26:30.344Z,0
2017-11-12T02:27:30.372Z,0
2017-11-12T02:28:30.397Z,0
2017-11-12T02:29:30.077Z,0
2017-11-12T02:30:29.761Z,0
2017-11-12T02:31:30.494Z,0
2017-11-12T02:32:30.165Z,0
2017-11-12T02:33:29.835Z,0
2017-11-12T02:34:30.530Z,0
2017-11-12T02:35:30.521Z,0
2017-11-12T02:36:30.187Z,0
2017-11-12T02:37:29.550Z,0
2017-11-12T02:38:30.215Z,0
2017-11-12T02:39:30.236Z,0
2017-11-12T02:40:30.571Z,0
2017-11-12T02:41:29.632Z,0
2017-11-12T02:42:30.637Z,0
2017-11-12T02:43:29.989Z,0
2017-11-12T02:44:30.648Z,0
2017-11-12T02:45:30.660Z,0
2017-11-12T02:46:30.354Z,0
2017-11-12T02:47:30.755Z,0
2017-11-12T02:48:30.374Z,0
2017-11-12T02:49:30.730Z,0
2017-11-12T02:50:30.746Z,0
2017-11-12T02:51:30.781Z,0
2017-11-12T02:52:30.781Z,0
2017-11-12T02:53:30.143Z,0
2017-11-12T02:54:30.476Z,0
2017-11-12T02:55:30.854Z,0
2017-11-12T02:56:30.185Z,0
2017-11-12T02:57:30.844Z,0
2017-11-12T02:58:30.878Z,0
2017-11-12T02:59:30.237Z,0
2017-11-12T03:00:30.925Z,0
2017-11-12T03:01:30.922Z,0
2017-11-12T03:02:30.972Z,0
2017-11-12T03:03:30.296Z,0
2017-11-12T03:04:30.954Z,0
2017-11-12T03:05:30.671Z,0
2017-11-12T03:06:30.345Z,0
2017-11-12T03:07:31.006Z,0
2017-11-12T03:08:31.030Z,0
2017-11-12T03:09:30.717Z,0
2017-11-12T03:10:30.412Z,0
2017-11-12T03:11:30.760Z,0
2017-11-12T03:12:31.100Z,0
2017-11-12T03:13:30.779Z,0
2017-11-12T03:14:31.129Z,0
2017-11-12T03:15:30.813Z,0
2017-11-12T03:16:30.821Z,0
2017-11-12T03:17:30.843Z,0
2017-11-12T03:18:31.118Z,0
2017-11-12T03:19:30.882Z,0
2017-11-12T03:20:30.247Z,0
2017-11-12T03:21:30.910Z,0
2017-11-12T03:22:31.247Z,0
2017-11-12T03:23:31.264Z,0
2017-11-12T03:24:31.291Z,0
2017-11-12T03:25:31.012Z,0
2017-11-12T03:26:30.671Z,0
2017-11-12T03:27:30.404Z,0
2017-11-12T03:28:31.349Z,0
2017-11-12T03:29:31.366Z,0
2017-11-12T03:30:31.398Z,0
2017-11-12T03:31:31.394Z,0
2017-11-12T03:32:30.757Z,0
2017-11-12T03:33:31.163Z,0
2017-11-12T03:34:31.113Z,0
2017-11-12T03:35:31.130Z,0
2017-11-12T03:36:31.141Z,0
2017-11-12T03:37:30.845Z,0
2017-11-12T03:38:31.515Z,0
2017-11-12T03:39:31.209Z,0
2017-11-12T03:40:31.215Z,0
2017-11-12T03:41:31.239Z,0
2017-11-12T03:42:31.245Z,0
2017-11-12T03:43:30.950Z,0
2017-11-12T03:44:31.290Z,0
2017-11-12T03:45:31.044Z,0
2017-11-12T03:46:31.305Z,0
2017-11-12T03:47:31.319Z,0
2017-11-12T03:48:31.392Z,0
2017-11-12T03:49:31.370Z,0
2017-11-12T03:50:31.384Z,0
2017-11-12T03:51:31.075Z,0
2017-11-12T03:52:31.748Z,0
2017-11-12T03:53:31.794Z,0
2017-11-12T03:54:31.441Z,0
2017-11-12T03:55:31.471Z,0
2017-11-12T03:56:31.492Z,0
2017-11-12T03:57:31.159Z,0
2017-11-12T03:58:31.505Z,0
2017-11-12T03:59:31.851Z,0
2017-11-12T04:00:31.534Z,0
2017-11-12T04:01:31.550Z,0
2017-11-12T04:02:31.238Z,0
2017-11-12T04:03:31.580Z,0
2017-11-12T04:04:31.918Z,0
2017-11-12T04:05:31.288Z,0
2017-11-12T04:06:31.966Z,0
2017-11-12T04:07:31.327Z,0
2017-11-12T04:08:31.663Z,0
2017-11-12T04:09:32.051Z,0
2017-11-12T04:10:32.022Z,0
2017-11-12T04:11:32.036Z,0
2017-11-12T04:12:31.719Z,0
2017-11-12T04:13:31.738Z,0
2017-11-12T04:14:31.752Z,0
2017-11-12T04:15:32.099Z,0
2017-11-12T04:16:31.785Z,0
2017-11-12T04:17:32.123Z,0
2017-11-12T04:18:31.549Z,0
2017-11-12T04:19:31.842Z,0
2017-11-12T04:20:31.526Z,0
2017-11-12T04:21:31.552Z,0
2017-11-12T04:22:31.924Z,0
2017-11-12T04:23:31.256Z,0
2017-11-12T04:24:31.971Z,0
2017-11-12T04:25:32.255Z,0
2017-11-12T04:26:32.270Z,0
2017-11-12T04:27:31.640Z,0
2017-11-12T04:28:32.304Z,0
2017-11-12T04:29:31.352Z,0
2017-11-12T04:30:32.346Z,0
2017-11-12T04:31:32.351Z,0
2017-11-12T04:32:32.082Z,0
2017-11-12T04:33:32.060Z,0
2017-11-12T04:34:32.402Z,0
2017-11-12T04:35:31.776Z,0
2017-11-12T04:36:32.191Z,0
2017-11-12T04:37:32.470Z,0
2017-11-12T04:38:32.142Z,0
2017-11-12T04:39:32.158Z,0
2017-11-12T04:40:32.222Z,0
2017-11-12T04:41:31.870Z,0
2017-11-12T04:42:32.534Z,0
2017-11-12T04:43:31.908Z,0
2017-11-12T04:44:31.922Z,0
2017-11-12T04:45:32.257Z,0
2017-11-12T04:46:32.593Z,0
2017-11-12T04:47:32.619Z,0
2017-11-12T04:48:31.980Z,0
2017-11-12T04:49:32.328Z,0
2017-11-12T04:50:32.011Z,0
2017-11-12T04:51:31.379Z,0
2017-11-12T04:52:32.375Z,0
2017-11-12T04:53:32.391Z,0
2017-11-12T04:54:32.454Z,0
2017-11-12T04:55:32.417Z,0
2017-11-12T04:56:32.438Z,0
2017-11-12T04:57:32.772Z,0
2017-11-12T04:58:32.789Z,0
2017-11-12T04:59:32.853Z,0
2017-11-12T05:00:32.820Z,0
2017-11-12T05:01:32.835Z,0
2017-11-12T05:02:32.867Z,0
2017-11-12T05:03:32.556Z,0
2017-11-12T05:04:32.562Z,0
2017-11-12T05:05:32.251Z,0
2017-11-12T05:06:32.591Z,0
2017-11-12T05:07:31.970Z,0
2017-11-12T05:08:32.659Z,0
2017-11-12T05:09:32.971Z,0
2017-11-12T05:10:32.986Z,0
2017-11-12T05:11:32.390Z,0
2017-11-12T05:12:32.711Z,0
2017-11-12T05:13:33.045Z,0
2017-11-12T05:14:32.732Z,0
2017-11-12T05:15:33.060Z,0
2017-11-12T05:16:33.153Z,0
2017-11-12T05:17:32.769Z,0
2017-11-12T05:18:32.808Z,0
2017-11-12T05:19:33.136Z,0
2017-11-12T05:20:32.494Z,0
2017-11-12T05:21:32.856Z,0
2017-11-12T05:22:32.864Z,0
2017-11-12T05:23:32.884Z,0
2017-11-12T05:24:33.203Z,0
2017-11-12T05:25:32.617Z,0
2017-11-12T05:26:32.913Z,0
2017-11-12T05:27:33.259Z,0
2017-11-12T05:28:33.283Z,0
2017-11-12T05:29:33.285Z,0
2017-11-12T05:30:32.981Z,0
2017-11-12T05:31:32.669Z,0
2017-11-12T05:32:33.330Z,0
2017-11-12T05:33:33.357Z,0
2017-11-12T05:34:33.052Z,0
2017-11-12T05:35:33.064Z,0
2017-11-12T05:36:32.428Z,0
2017-11-12T05:37:33.098Z,0
2017-11-12T05:38:33.105Z,0
2017-11-12T05:39:33.442Z,0
2017-11-12T05:40:33.140Z,0
2017-11-12T05:41:33.147Z,0
2017-11-12T05:42:33.691Z,0
2017-11-12T05:43:33.533Z,0
2017-11-12T05:44:33.200Z,0
2017-11-12T05:45:33.569Z,0
2017-11-12T05:46:32.908Z,0
2017-11-12T05:47:33.574Z,0
2017-11-12T05:48:33.025Z,0
2017-11-12T05:49:33.292Z,0
2017-11-12T05:50:32.654Z,0
2017-11-12T05:51:32.991Z,0
2017-11-12T05:52:33.654Z,0
2017-11-12T05:53:33.346Z,0
2017-11-12T05:54:32.391Z,0
2017-11-12T05:55:33.058Z,0
2017-11-12T05:56:33.393Z,0
2017-11-12T05:57:33.096Z,0
2017-11-12T05:58:33.762Z,0
2017-11-12T05:59:33.789Z,0
2017-11-12T06:00:33.465Z,0
2017-11-12T06:01:33.807Z,0
2017-11-12T06:02:33.818Z,0
2017-11-12T06:03:33.887Z,0
2017-11-12T06:04:33.844Z,0
2017-11-12T06:05:33.555Z,0
2017-11-12T06:06:33.888Z,0
2017-11-12T06:07:33.923Z,0
2017-11-12T06:08:33.583Z,0
2017-11-12T06:09:33.935Z,0
2017-11-12T06:10:33.941Z,0
2017-11-12T06:11:33.960Z,0
2017-11-12T06:12:33.656Z,0
2017-11-12T06:13:33.678Z,0
2017-11-12T06:14:33.685Z,0
2017-11-12T06:15:34.026Z,0
2017-11-12T06:16:34.046Z,0
2017-11-12T06:17:33.738Z,0
2017-11-12T06:18:34.123Z,0
2017-11-12T06:19:33.769Z,0
2017-11-12T06:20:33.453Z,0
2017-11-12T06:21:33.799Z,0
2017-11-12T06:22:33.812Z,0
2017-11-12T06:23:33.842Z,0
2017-11-12T06:24:34.167Z,0
2017-11-12T06:25:33.862Z,0
2017-11-12T06:26:33.550Z,0
2017-11-12T06:27:33.565Z,0
2017-11-12T06:28:34.236Z,0
2017-11-12T06:29:33.931Z,0
2017-11-12T06:30:34.169Z,0
2017-11-12T06:31:33.636Z,0
2017-11-12T06:32:34.305Z,0
2017-11-12T06:33:34.044Z,5
2017-11-12T06:34:33.684Z,5
2017-11-12T06:35:34.024Z,5
2017-11-12T06:36:34.049Z,5
2017-11-12T06:37:33.729Z,5
2017-11-12T06:38:34.079Z,5
2017-11-12T06:39:33.759Z,5
2017-11-12T06:40:34.102Z,5
2017-11-12T06:41:34.127Z,5
2017-11-12T06:42:34.463Z,5
2017-11-12T06:43:34.158Z,5
2017-11-12T06:44:34.192Z,5
2017-11-12T06:45:34.511Z,5
2017-11-12T06:46:34.525Z,5
2017-11-12T06:47:34.545Z,10
2017-11-12T06:48:34.230Z,10
2017-11-12T06:49:34.618Z,10
2017-11-12T06:50:34.590Z,10
2017-11-12T06:51:34.625Z,10
2017-11-12T06:52:34.292Z,10
2017-11-12T06:53:34.319Z,10
2017-11-12T06:54:34.651Z,10
2017-11-12T06:55:34.351Z,10
2017-11-12T06:56:34.413Z,15
2017-11-12T06:57:34.708Z,15
2017-11-12T06:58:34.407Z,15
2017-11-12T06:59:34.411Z,15
2017-11-12T07:00:34.432Z,15
2017-11-12T07:01:34.781Z,15
2017-11-12T07:02:34.469Z,15
2017-11-12T07:03:34.472Z,15
2017-11-12T07:04:34.544Z,15
2017-11-12T07:05:34.181Z,15
2017-11-12T07:06:34.529Z,15
2017-11-12T07:07:34.534Z,15
2017-11-12T07:08:34.549Z,15
2017-11-12T07:09:34.568Z,15
2017-11-12T07:10:34.592Z,15
2017-11-12T07:11:34.644Z,20
2017-11-12T07:12:33.973Z,20
2017-11-12T07:13:34.308Z,20
2017-11-12T07:14:34.972Z,20
2017-11-12T07:15:35.000Z,20
2017-11-12T07:16:35.007Z,20
2017-11-12T07:17:35.021Z,15
2017-11-12T07:18:34.393Z,15
2017-11-12T07:19:34.789Z,15
2017-11-12T07:20:34.753Z,20
2017-11-12T07:21:34.119Z,20
2017-11-12T07:22:34.454Z,25
2017-11-12T07:23:35.163Z,25
2017-11-12T07:24:34.487Z,25
2017-11-12T07:25:35.222Z,25
2017-11-12T07:26:34.854Z,25
2017-11-12T07:27:34.864Z,30
2017-11-12T07:28:34.557Z,30
2017-11-12T07:29:34.570Z,35
2017-11-12T07:30:34.921Z,35
2017-11-12T07:31:35.259Z,40
2017-11-12T07:32:35.290Z,40
2017-11-12T07:33:34.971Z,40
2017-11-12T07:34:35.033Z,40
2017-11-12T07:35:34.993Z,35
2017-11-12T07:36:35.009Z,30
2017-11-12T07:37:35.342Z,30
2017-11-12T07:38:35.035Z,35
2017-11-12T07:39:35.057Z,35
2017-11-12T07:40:34.746Z,40
2017-11-12T07:41:34.769Z,40
2017-11-12T07:42:35.432Z,45
2017-11-12T07:43:35.124Z,45
2017-11-12T07:44:35.142Z,45
2017-11-12T07:45:35.146Z,40
2017-11-12T07:46:34.838Z,40
2017-11-12T07:47:35.505Z,40
2017-11-12T07:48:35.194Z,40
2017-11-12T07:49:35.268Z,35
2017-11-12T07:50:35.557Z,35
2017-11-12T07:51:35.576Z,35
2017-11-12T07:52:35.635Z,35
2017-11-12T07:53:35.285Z,40
2017-11-12T07:54:35.651Z,40
2017-11-12T07:55:35.327Z,40
2017-11-12T07:56:35.020Z,40
2017-11-12T07:57:35.026Z,45
2017-11-12T07:58:35.705Z,45
2017-11-12T07:59:35.387Z,50
2017-11-12T08:00:35.406Z,50
2017-11-12T08:01:35.410Z,50
2017-11-12T08:02:35.109Z,50
2017-11-12T08:03:35.470Z,50
2017-11-12T08:04:35.786Z,45
2017-11-12T08:05:35.482Z,40
2017-11-12T08:06:35.899Z,40
2017-11-12T08:07:35.203Z,45
2017-11-12T08:08:35.880Z,50
2017-11-12T08:09:35.543Z,55
2017-11-12T08:10:35.559Z,60
2017-11-12T08:11:35.594Z,70
2017-11-12T08:12:35.602Z,70
2017-11-12T08:13:35.961Z,70
2017-11-12T08:14:35.636Z,65
2017-11-12T08:15:35.669Z,65
2017-11-12T08:16:35.661Z,65
2017-11-12T08:17:35.355Z,70
2017-11-12T08:18:35.721Z,70
2017-11-12T08:19:35.722Z,65
2017-11-12T08:20:35.409Z,60
2017-11-12T08:21:35.474Z,65
2017-11-12T08:22:36.082Z,65
2017-11-12T08:23:36.155Z,65
2017-11-12T08:24:36.116Z,65
2017-11-12T08:25:35.806Z,70
2017-11-12T08:26:35.822Z,70
2017-11-12T08:27:36.162Z,65
2017-11-12T08:28:36.216Z,65
2017-11-12T08:29:35.555Z,65
2017-11-12T08:30:35.566Z,70
2017-11-12T08:31:35.932Z,70
2017-11-12T08:32:35.920Z,65
2017-11-12T08:33:35.937Z,65
2017-11-12T08:34:35.973Z,70
2017-11-12T08:35:35.987Z,75
2017-11-12T08:36:36.319Z,70
2017-11-12T08:37:36.003Z,65
2017-11-12T08:38:35.759Z,60
2017-11-12T08:39:35.744Z,60
2017-11-12T08:40:36.373Z,60
2017-11-12T08:41:36.072Z,65
2017-11-12T08:42:36.123Z,65
2017-11-12T08:43:35.779Z,70
2017-11-12T08:44:36.455Z,75
2017-11-12T08:45:36.457Z,80
2017-11-12T08:46:36.159Z,80
2017-11-12T08:47:36.158Z,85
2017-11-12T08:48:36.508Z,85
2017-11-12T08:49:36.468Z,90
2017-11-12T08:50:36.209Z,90
2017-11-12T08:51:36.570Z,90
2017-11-12T08:52:36.564Z,95
2017-11-12T08:53:36.258Z,95
2017-11-12T08:54:35.626Z,95
2017-11-12T08:55:35.962Z,100
2017-11-12T08:56:35.978Z,105
2017-11-12T08:57:36.373Z,115
2017-11-12T08:58:36.677Z,115
2017-11-12T08:59:36.678Z,115
2017-11-12T09:00:36.049Z,110
2017-11-12T09:01:36.376Z,100
2017-11-12T09:02:36.418Z,100
2017-11-12T09:03:36.428Z,105
2017-11-12T09:04:36.764Z,115
2017-11-12T09:05:36.457Z,125
2017-11-12T09:06:36.464Z,130
2017-11-12T09:07:36.860Z,135
2017-11-12T09:08:36.507Z,140
2017-11-12T09:09:36.516Z,140
2017-11-12T09:10:36.536Z,135
2017-11-12T09:11:36.866Z,130
2017-11-12T09:12:36.564Z,125
2017-11-12T09:13:36.573Z,120
2017-11-12T09:14:36.917Z,120
2017-11-12T09:15:36.605Z,120
2017-11-12T09:16:36.296Z,125
2017-11-12T09:17:35.985Z,125
2017-11-12T09:18:36.017Z,125
2017-11-12T09:19:36.351Z,125
2017-11-12T09:20:36.701Z,125
2017-11-12T09:21:36.696Z,125
2017-11-12T09:22:37.047Z,125
2017-11-12T09:23:36.742Z,130
2017-11-12T09:24:36.771Z,135
2017-11-12T09:25:36.812Z,140
2017-11-12T09:26:36.779Z,135
2017-11-12T09:27:37.115Z,130
2017-11-12T09:28:36.812Z,130
2017-11-12T09:29:37.155Z,125
2017-11-12T09:30:36.847Z,120
2017-11-12T09:31:36.539Z,120
2017-11-12T09:32:37.205Z,115
2017-11-12T09:33:36.889Z,115
2017-11-12T09:34:37.245Z,110
2017-11-12T09:35:36.608Z,105
2017-11-12T09:36:36.627Z,90
2017-11-12T09:37:36.962Z,85
2017-11-12T09:38:36.644Z,85
2017-11-12T09:39:37.310Z,90
2017-11-12T09:40:36.401Z,100
2017-11-12T09:41:37.400Z,105
2017-11-12T09:42:37.063Z,105
2017-11-12T09:43:37.058Z,110
2017-11-12T09:44:36.418Z,110
2017-11-12T09:45:37.076Z,110
2017-11-12T09:46:36.766Z,115
2017-11-12T09:47:37.440Z,115
2017-11-12T09:48:37.132Z,110
2017-11-12T09:49:36.837Z,105
2017-11-12T09:50:37.161Z,95
2017-11-12T09:51:36.196Z,90
2017-11-12T09:52:37.514Z,90
2017-11-12T09:53:37.212Z,90
2017-11-12T09:54:37.216Z,95
2017-11-12T09:55:37.236Z,105
2017-11-12T09:56:37.249Z,115
2017-11-12T09:57:37.258Z,120
2017-11-12T09:58:37.341Z,130
2017-11-12T09:59:37.306Z,140
2017-11-12T10:00:36.988Z,135
2017-11-12T10:01:37.343Z,120
2017-11-12T10:02:37.019Z,100
2017-11-12T10:03:37.683Z,90
2017-11-12T10:04:37.049Z,80
2017-11-12T10:05:37.391Z,85
2017-11-12T10:06:37.438Z,85
2017-11-12T10:07:37.434Z,85
2017-11-12T10:08:37.116Z,85
2017-11-12T10:09:37.446Z,85
2017-11-12T10:10:37.342Z,75
2017-11-12T10:11:37.512Z,70
2017-11-12T10:12:37.491Z,60
2017-11-12T10:13:37.558Z,60
2017-11-12T10:14:37.853Z,60
2017-11-12T10:15:37.878Z,65
2017-11-12T10:16:37.883Z,60
2017-11-12T10:17:36.924Z,70
2017-11-12T10:18:37.592Z,70
2017-11-12T10:19:37.608Z,65
2017-11-12T10:20:36.977Z,65
2017-11-12T10:21:37.963Z,70
2017-11-12T10:22:38.041Z,65
2017-11-12T10:23:37.673Z,65
2017-11-12T10:24:37.683Z,65
2017-11-12T10:25:37.377Z,60
2017-11-12T10:26:37.066Z,55
2017-11-12T10:27:37.408Z,60
2017-11-12T10:28:37.423Z,65
2017-11-12T10:29:37.488Z,70
2017-11-12T10:30:38.102Z,80
2017-11-12T10:31:37.472Z,85
2017-11-12T10:32:38.133Z,105
2017-11-12T10:33:37.826Z,105
2017-11-12T10:34:37.548Z,100
2017-11-12T10:35:38.196Z,90
2017-11-12T10:36:37.543Z,90
2017-11-12T10:37:38.210Z,90
2017-11-12T10:38:37.900Z,85
2017-11-12T10:39:37.914Z,85
2017-11-12T10:40:38.272Z,90
2017-11-12T10:41:37.964Z,105
2017-11-12T10:42:38.297Z,100
2017-11-12T10:43:37.658Z,80
2017-11-12T10:44:38.387Z,85
2017-11-12T10:45:38.339Z,100
2017-11-12T10:46:38.033Z,115
2017-11-12T10:47:38.053Z,125
2017-11-12T10:48:37.411Z,130
2017-11-12T10:49:38.408Z,115
2017-11-12T10:50:37.775Z,100
2017-11-12T10:51:37.483Z,80
2017-11-12T10:52:37.804Z,70
2017-11-12T10:53:37.821Z,70
2017-11-12T10:54:37.844Z,60
2017-11-12T10:55:38.504Z,60
2017-11-12T10:56:37.871Z,65
2017-11-12T10:57:38.535Z,75
2017-11-12T10:58:37.901Z,70
2017-11-12T10:59:38.636Z,65
2017-11-12T11:00:38.602Z,60
2017-11-12T11:01:37.954Z,75
2017-11-12T11:02:38.292Z,85
2017-11-12T11:03:37.984Z,95
2017-11-12T11:04:38.319Z,95
2017-11-12T11:05:38.008Z,95
2017-11-12T11:06:38.346Z,100
2017-11-12T11:07:38.695Z,95
2017-11-12T11:08:38.705Z,90
2017-11-12T11:09:38.419Z,85
2017-11-12T11:10:37.766Z,85
2017-11-12T11:11:38.753Z,75
2017-11-12T11:12:38.448Z,65
2017-11-12T11:13:38.800Z,75
2017-11-12T11:14:38.529Z,75
2017-11-12T11:15:38.169Z,85
2017-11-12T11:16:38.196Z,90
2017-11-12T11:17:38.541Z,95
2017-11-12T11:18:38.875Z,110
2017-11-12T11:19:38.892Z,120
2017-11-12T11:20:38.262Z,135
2017-11-12T11:21:37.952Z,140
2017-11-12T11:22:38.299Z,135
2017-11-12T11:23:38.626Z,145
2017-11-12T11:24:38.318Z,160
2017-11-12T11:25:38.673Z,155
2017-11-12T11:26:38.666Z,140
2017-11-12T11:27:39.020Z,120
2017-11-12T11:28:39.082Z,110
2017-11-12T11:29:39.112Z,120
2017-11-12T11:30:39.078Z,125
2017-11-12T11:31:38.427Z,120
2017-11-12T11:32:38.447Z,135
2017-11-12T11:33:39.116Z,145
2017-11-12T11:34:39.159Z,140
2017-11-12T11:35:39.172Z,135
2017-11-12T11:36:38.187Z,125
2017-11-12T11:37:38.547Z,105
2017-11-12T11:38:38.223Z,100
2017-11-12T11:39:39.217Z,95
2017-11-12T11:40:39.259Z,90
2017-11-12T11:41:38.271Z,85
2017-11-12T11:42:38.615Z,85
2017-11-12T11:43:38.628Z,90
2017-11-12T11:44:38.970Z,80
2017-11-12T11:45:38.666Z,80
2017-11-12T11:46:38.692Z,85
2017-11-12T11:47:38.722Z,85
2017-11-12T11:48:39.414Z,80
2017-11-12T11:49:39.423Z,65
2017-11-12T11:50:39.398Z,55
2017-11-12T11:51:39.417Z,50
2017-11-12T11:52:39.123Z,50
2017-11-12T11:53:39.448Z,50
2017-11-12T11:54:39.492Z,50
2017-11-12T11:55:39.164Z,50
2017-11-12T11:56:39.186Z,55
2017-11-12T11:57:38.868Z,55
2017-11-12T11:58:39.233Z,55
2017-11-12T11:59:38.905Z,60
2017-11-12T12:00:39.256Z,75
2017-11-12T12:01:39.590Z,70
2017-11-12T12:02:38.953Z,75
2017-11-12T12:03:38.968Z,75
2017-11-12T12:04:39.642Z,75
2017-11-12T12:05:39.731Z,80
2017-11-12T12:06:39.666Z,80
2017-11-12T12:07:38.722Z,80
2017-11-12T12:08:39.056Z,85
2017-11-12T12:09:39.083Z,80
2017-11-12T12:10:39.435Z,85
2017-11-12T12:11:39.113Z,100
2017-11-12T12:12:39.438Z,105
2017-11-12T12:13:39.469Z,115
2017-11-12T12:14:39.485Z,115
2017-11-12T12:15:39.501Z,110
2017-11-12T12:16:39.535Z,105
2017-11-12T12:17:38.885Z,90
2017-11-12T12:18:39.877Z,80
2017-11-12T12:19:39.595Z,75
2017-11-12T12:20:39.973Z,70
2017-11-12T12:21:39.945Z,65
2017-11-12T12:22:39.296Z,65
2017-11-12T12:23:39.323Z,65
2017-11-12T12:24:39.976Z,65
2017-11-12T12:25:39.676Z,65
2017-11-12T12:26:40.005Z,70
2017-11-12T12:27:39.698Z,70
2017-11-12T12:28:40.071Z,75
2017-11-12T12:29:40.063Z,75
2017-11-12T12:30:39.765Z,70
2017-11-12T12:31:39.770Z,75
2017-11-12T12:32:39.462Z,75
2017-11-12T12:33:39.812Z,80
2017-11-12T12:34:39.513Z,80
2017-11-12T12:35:39.899Z,80
2017-11-12T12:36:39.855Z,85
2017-11-12T12:37:40.207Z,85
2017-11-12T12:38:40.233Z,85
2017-11-12T12:39:39.919Z,85
2017-11-12T12:40:39.601Z,90
2017-11-12T12:41:39.950Z,90
2017-11-12T12:42:39.638Z,85
2017-11-12T12:43:40.304Z,85
2017-11-12T12:44:40.322Z,85
2017-11-12T12:45:40.026Z,80
2017-11-12T12:46:39.384Z,80
2017-11-12T12:47:40.067Z,80
2017-11-12T12:48:40.072Z,80
2017-11-12T12:49:40.087Z,75
2017-11-12T12:50:40.425Z,75
2017-11-12T12:51:40.120Z,80
2017-11-12T12:52:40.138Z,85
2017-11-12T12:53:39.836Z,95
2017-11-12T12:54:40.177Z,110
2017-11-12T12:55:40.184Z,120
2017-11-12T12:56:40.232Z,110
2017-11-12T12:57:40.547Z,100
2017-11-12T12:58:40.571Z,90
2017-11-12T12:59:40.578Z,85
2017-11-12T13:00:40.273Z,80
2017-11-12T13:01:40.617Z,80
2017-11-12T13:02:39.984Z,75
2017-11-12T13:03:40.369Z,70
2017-11-12T13:04:40.346Z,60
2017-11-12T13:05:40.044Z,55
2017-11-12T13:06:40.725Z,55
2017-11-12T13:07:41.121Z,50
2017-11-12T13:08:40.760Z,50
2017-11-12T13:09:40.749Z,45
2017-11-12T13:10:40.473Z,40
2017-11-12T13:11:40.790Z,35
2017-11-12T13:12:40.524Z,30
2017-11-12T13:13:40.849Z,30
2017-11-12T13:14:40.846Z,25
2017-11-12T13:15:40.223Z,25
2017-11-12T13:16:40.577Z,30
2017-11-12T13:17:40.584Z,35
2017-11-12T13:18:40.590Z,35
2017-11-12T13:19:40.280Z,40
2017-11-12T13:20:40.944Z,45
2017-11-12T13:21:40.966Z,45
2017-11-12T13:22:40.674Z,40
2017-11-12T13:23:40.682Z,35
2017-11-12T13:24:40.707Z,35
2017-11-12T13:25:40.770Z,35
2017-11-12T13:26:40.083Z,35
2017-11-12T13:27:40.746Z,35
2017-11-12T13:28:40.777Z,35
2017-11-12T13:29:41.119Z,40
2017-11-12T13:30:40.483Z,40
2017-11-12T13:31:40.829Z,45
2017-11-12T13:32:40.842Z,50
2017-11-12T13:33:40.545Z,55
2017-11-12T13:34:40.568Z,55
2017-11-12T13:35:41.277Z,55
2017-11-12T13:36:40.902Z,55
2017-11-12T13:37:41.237Z,55
2017-11-12T13:38:40.632Z,55
2017-11-12T13:39:41.295Z,55
2017-11-12T13:40:41.359Z,60
2017-11-12T13:41:41.311Z,65
2017-11-12T13:42:41.007Z,70
2017-11-12T13:43:40.711Z,75
2017-11-12T13:44:41.380Z,75
2017-11-12T13:45:41.399Z,75
2017-11-12T13:46:41.086Z,75
2017-11-12T13:47:40.784Z,75
2017-11-12T13:48:41.433Z,75
2017-11-12T13:49:41.122Z,75
2017-11-12T13:50:41.472Z,80
2017-11-12T13:51:41.501Z,85
2017-11-12T13:52:41.189Z,90
2017-11-12T13:53:41.204Z,95
2017-11-12T13:54:40.578Z,95
2017-11-12T13:55:40.974Z,85
2017-11-12T13:56:41.583Z,80
2017-11-12T13:57:41.591Z,70
2017-11-12T13:58:41.615Z,70
2017-11-12T13:59:41.632Z,70
2017-11-12T14:00:41.671Z,75
2017-11-12T14:01:41.060Z,80
2017-11-12T14:02:41.709Z,85
2017-11-12T14:03:41.724Z,90
2017-11-12T14:04:41.402Z,85
2017-11-12T14:05:41.425Z,75
2017-11-12T14:06:41.766Z,70
2017-11-12T14:07:41.145Z,60
2017-11-12T14:08:41.200Z,55
2017-11-12T14:09:41.492Z,50
2017-11-12T14:10:41.895Z,45
2017-11-12T14:11:41.213Z,40
2017-11-12T14:12:41.557Z,35
2017-11-12T14:13:41.561Z,30
2017-11-12T14:14:41.253Z,25
2017-11-12T14:15:41.920Z,20
2017-11-12T14:16:41.961Z,20
2017-11-12T14:17:41.636Z,20
2017-11-12T14:18:41.326Z,15
2017-11-12T14:19:41.666Z,15
2017-11-12T14:20:42.030Z,15
2017-11-12T14:21:42.019Z,10
2017-11-12T14:39:05.346Z,65
2017-11-12T14:40:05.672Z,70
2017-11-12T14:41:05.355Z,80
2017-11-12T14:42:05.383Z,80
2017-11-12T14:43:05.388Z,80